createdAt,value
2023-01-06T00:04:23.344Z,-20.59
2023-01-06T00:09:27.059Z,-20.60
2023-01-06T00:14:31.846Z,-20.64
2023-01-06T00:19:35.258Z,-20.72
2023-01-06T00:24:38.708Z,-20.69
2023-01-06T00:29:43.446Z,-20.74
2023-01-06T00:34:47.131Z,-20.81
2023-01-06T00:39:50.487Z,-20.75
2023-01-06T00:44:55.373Z,-20.79
2023-01-06T00:49:58.676Z,-20.90
2023-01-06T00:55:02.450Z,-20.89
2023-01-06T01:00:09.799Z,-20.97
2023-01-06T01:05:13.649Z,-21.16
2023-01-06T01:10:17.221Z,-21.06
2023-01-06T01:15:22.798Z,-21.05
2023-01-06T01:20:26.106Z,-21.09
2023-01-06T01:25:29.592Z,-21.07
2023-01-06T01:30:34.435Z,-21.12
2023-01-06T01:35:37.776Z,-21.28
2023-01-06T01:40:47.936Z,-21.17
2023-01-06T01:45:55.426Z,-21.30
2023-01-06T01:51:02.584Z,-21.37
2023-01-06T01:56:09.650Z,-21.38
2023-01-06T02:01:14.879Z,-21.41
2023-01-06T02:06:21.440Z,-21.46
2023-01-06T02:11:25.613Z,-21.47
2023-01-06T02:16:40.475Z,-21.46
2023-01-06T02:22:04.251Z,-21.40
2023-01-06T02:27:34.670Z,-21.37
2023-01-06T02:32:47.445Z,-21.42
2023-01-06T02:38:03.423Z,-21.56
2023-01-06T02:43:16.409Z,-21.66
2023-01-06T02:48:28.660Z,-21.67
2023-01-06T02:53:40.800Z,-21.79
2023-01-06T02:58:52.279Z,-21.71
2023-01-06T03:04:01.552Z,-21.85
2023-01-06T03:09:06.897Z,-21.78
2023-01-06T03:14:15.724Z,-21.81
2023-01-06T03:19:20.744Z,-21.76
2023-01-06T03:24:24.246Z,-21.91
2023-01-06T03:29:27.815Z,-21.81
2023-01-06T03:34:45.150Z,-21.81
2023-01-06T03:39:57.020Z,-21.84
2023-01-06T03:45:11.454Z,-21.82
2023-01-06T03:50:22.758Z,-21.80
2023-01-06T03:55:32.032Z,-21.81
2023-01-06T04:00:38.292Z,-21.78
2023-01-06T04:05:43.375Z,-21.91
2023-01-06T04:10:46.732Z,-21.92
2023-01-06T04:15:50.071Z,-21.96
2023-01-06T04:20:55.037Z,-21.96
2023-01-06T04:25:58.414Z,-22.02
2023-01-06T04:31:02.987Z,-22.28
2023-01-06T04:36:10.308Z,-22.05
2023-01-06T04:41:13.657Z,-22.09
2023-01-06T04:46:17.169Z,-22.20
2023-01-06T04:51:21.999Z,-22.19
2023-01-06T04:56:26.794Z,-22.20
2023-01-06T05:01:30.578Z,-22.21
2023-01-06T05:06:35.405Z,-22.25
2023-01-06T05:11:39.426Z,-22.34
2023-01-06T05:16:42.829Z,-22.38
2023-01-06T05:21:47.708Z,-22.43
2023-01-06T05:26:51.076Z,-22.43
2023-01-06T05:31:54.551Z,-22.45
2023-01-06T05:36:59.511Z,-22.43
2023-01-06T05:42:02.988Z,-22.46
2023-01-06T05:47:06.554Z,-22.50
2023-01-06T05:52:11.420Z,-22.44
2023-01-06T05:57:14.995Z,-22.45
2023-01-06T06:02:18.440Z,-22.39
2023-01-06T06:07:23.614Z,-22.47
2023-01-06T06:12:27.012Z,-22.39
2023-01-06T06:17:30.582Z,-22.31
2023-01-06T06:22:35.325Z,-22.26
2023-01-06T06:27:39.638Z,-22.13
2023-01-06T06:32:42.935Z,-22.00
2023-01-06T06:37:47.862Z,-21.97
2023-01-06T06:42:53.429Z,-21.84
2023-01-06T06:47:57.080Z,-21.76
2023-01-06T06:53:02.010Z,-19.23
2023-01-06T06:58:05.785Z,-15.35
2023-01-06T07:03:09.077Z,-11.34
2023-01-06T07:08:14.503Z,-8.36
2023-01-06T07:13:18.092Z,-6.41
2023-01-06T07:18:21.754Z,-4.82
2023-01-06T07:23:26.852Z,-3.38
2023-01-06T07:28:32.867Z,-2.47
2023-01-06T07:33:36.290Z,-1.70
2023-01-06T07:38:41.318Z,-0.97
2023-01-06T07:43:44.823Z,0.04
2023-01-06T07:48:48.145Z,0.54
2023-01-06T07:53:52.853Z,0.88
2023-01-06T07:58:56.430Z,1.35
2023-01-06T08:03:59.890Z,1.23
2023-01-06T08:09:05.185Z,0.87
2023-01-06T08:14:08.656Z,0.82
2023-01-06T08:19:12.202Z,1.15
2023-01-06T08:24:17.199Z,1.32
2023-01-06T08:29:20.811Z,1.34
2023-01-06T08:34:24.282Z,0.69
2023-01-06T08:39:29.336Z,0.46
2023-01-06T08:44:32.933Z,-0.26
2023-01-06T08:49:36.470Z,-1.95
2023-01-06T08:54:41.354Z,-3.36
2023-01-06T08:59:46.377Z,-4.99
2023-01-06T09:04:50.515Z,-7.03
2023-01-06T09:09:55.633Z,-8.77
2023-01-06T09:14:59.300Z,-10.55
2023-01-06T09:20:03.071Z,-11.91
2023-01-06T09:25:09.669Z,-12.59
2023-01-06T09:30:14.682Z,-13.11
2023-01-06T09:35:18.292Z,-13.84
2023-01-06T09:40:27.565Z,-14.17
2023-01-06T09:45:40.269Z,-14.63
2023-01-06T09:50:47.164Z,-15.14
2023-01-06T09:55:58.164Z,-15.68
2023-01-06T10:01:06.335Z,-16.09
2023-01-06T10:06:27.420Z,-16.20
2023-01-06T10:11:45.277Z,-16.42
2023-01-06T10:17:03.513Z,-16.75
2023-01-06T10:22:14.982Z,-16.98
2023-01-06T10:27:27.973Z,-17.13
2023-01-06T10:32:34.815Z,-17.38
2023-01-06T10:37:41.224Z,-17.44
2023-01-06T10:43:00.241Z,-17.52
2023-01-06T10:48:06.020Z,-17.56
2023-01-06T10:53:11.980Z,-17.52
2023-01-06T10:58:23.336Z,-17.52
2023-01-06T11:03:35.221Z,-17.74
2023-01-06T11:08:41.254Z,-17.86
2023-01-06T11:13:51.673Z,-18.01
2023-01-06T11:18:57.716Z,-18.13
2023-01-06T11:24:17.234Z,-18.21
2023-01-06T11:29:28.325Z,-18.35
2023-01-06T11:34:32.798Z,-18.52
2023-01-06T11:39:38.606Z,-18.44
2023-01-06T11:44:44.865Z,-18.45
2023-01-06T11:49:50.961Z,-18.50
2023-01-06T11:55:20.604Z,-18.59
2023-01-06T12:00:36.036Z,-18.57
2023-01-06T12:05:48.378Z,-18.57
2023-01-06T12:10:57.851Z,-18.53
2023-01-06T12:16:07.889Z,-18.54
2023-01-06T12:21:17.222Z,-18.63
2023-01-06T12:26:24.739Z,-18.75
2023-01-06T12:31:45.423Z,-18.89
2023-01-06T12:36:53.620Z,-19.09
2023-01-06T12:41:59.982Z,-19.31
2023-01-06T12:47:12.902Z,-19.51
2023-01-06T12:52:20.806Z,-19.68
2023-01-06T12:57:39.696Z,-19.79
2023-01-06T13:02:55.943Z,-19.91
2023-01-06T13:08:13.944Z,-20.08
2023-01-06T13:13:39.737Z,-20.25
2023-01-06T13:18:51.948Z,-20.35
2023-01-06T13:24:11.280Z,-20.59
2023-01-06T13:29:27.096Z,-20.66
2023-01-06T13:34:53.360Z,-20.75
2023-01-06T13:39:59.717Z,-20.88
2023-01-06T13:45:04.639Z,-20.87
2023-01-06T13:50:13.856Z,-20.98
2023-01-06T13:55:28.667Z,-21.01
2023-01-06T14:00:32.564Z,-21.06
2023-01-06T14:05:57.934Z,-21.50
2023-01-06T14:11:04.608Z,-21.14
2023-01-06T14:16:11.670Z,-21.11
2023-01-06T14:21:26.742Z,-21.15
2023-01-06T14:26:48.145Z,-21.13
2023-01-06T14:31:51.786Z,-21.17
2023-01-06T14:36:57.480Z,-21.22
2023-01-06T14:42:04.890Z,-21.39
2023-01-06T14:47:16.593Z,-21.29
2023-01-06T14:52:24.458Z,-21.34
2023-01-06T14:57:36.375Z,-21.32
2023-01-06T15:02:45.729Z,-21.41
2023-01-06T15:08:02.346Z,-21.52
2023-01-06T15:13:20.716Z,-21.58
2023-01-06T15:18:24.394Z,-21.55
2023-01-06T15:23:29.503Z,-21.58
2023-01-06T15:28:34.876Z,-21.68
2023-01-06T15:33:41.021Z,-21.81
2023-01-06T15:38:46.335Z,-21.70
2023-01-06T15:43:50.334Z,-21.76
2023-01-06T15:48:54.131Z,-21.74
2023-01-06T15:54:00.806Z,-21.66
2023-01-06T15:59:04.492Z,-21.66
2023-01-06T16:04:08.101Z,-21.67
2023-01-06T16:09:31.036Z,-21.55
2023-01-06T16:14:37.097Z,-21.56
2023-01-06T16:19:47.899Z,-21.61
2023-01-06T16:24:53.507Z,-21.62
2023-01-06T16:30:22.533Z,-21.71
2023-01-06T16:35:27.879Z,-21.65
2023-01-06T16:40:32.920Z,-21.63
2023-01-06T16:45:40.492Z,-21.66
2023-01-06T16:50:45.817Z,-21.82
2023-01-06T16:55:54.024Z,-21.69
2023-01-06T17:01:03.789Z,-21.68
2023-01-06T17:06:13.781Z,-21.77
2023-01-06T17:11:20.717Z,-21.78
2023-01-06T17:16:27.548Z,-21.79
2023-01-06T17:21:36.811Z,-21.76
2023-01-06T17:26:44.223Z,-21.88
2023-01-06T17:31:50.464Z,-21.78
2023-01-06T17:36:57.378Z,-21.76
2023-01-06T17:42:24.793Z,-21.73
2023-01-06T17:47:30.711Z,-21.83
2023-01-06T17:52:38.058Z,-21.88
2023-01-06T17:57:47.115Z,-21.88
2023-01-06T18:02:56.363Z,-21.87
2023-01-06T18:08:12.292Z,-21.79
2023-01-06T18:13:20.076Z,-21.86
2023-01-06T18:18:25.409Z,-21.89
2023-01-06T18:23:29.736Z,-22.04
2023-01-06T18:28:37.055Z,-22.08
2023-01-06T18:33:40.515Z,-22.05
2023-01-06T18:38:45.391Z,-22.16
2023-01-06T18:43:50.187Z,-22.12
2023-01-06T18:48:56.068Z,-22.11
2023-01-06T18:53:59.616Z,-22.15
2023-01-06T18:59:09.848Z,-22.21
2023-01-06T19:04:22.434Z,-22.19
2023-01-06T19:09:33.681Z,-22.40
2023-01-06T19:14:41.702Z,-22.24
2023-01-06T19:19:45.727Z,-22.40
2023-01-06T19:24:52.705Z,-22.46
2023-01-06T19:30:03.191Z,-22.56
2023-01-06T19:35:15.989Z,-22.39
2023-01-06T19:40:27.872Z,-22.46
2023-01-06T19:45:35.047Z,-22.35
2023-01-06T19:50:38.468Z,-22.31
2023-01-06T19:55:42.827Z,-22.25
2023-01-06T20:00:50.527Z,-22.17
2023-01-06T20:05:54.052Z,-22.23
2023-01-06T20:10:57.742Z,-22.24
2023-01-06T20:16:02.797Z,-22.35
2023-01-06T20:21:06.872Z,-22.35
2023-01-06T20:26:10.353Z,-22.34
2023-01-06T20:31:15.454Z,-22.23
2023-01-06T20:36:19.069Z,-22.28
2023-01-06T20:41:22.694Z,-22.36
2023-01-06T20:46:27.672Z,-22.30
2023-01-06T20:51:31.183Z,-22.37
2023-01-06T20:56:34.787Z,-22.34
2023-01-06T21:01:40.003Z,-22.28
2023-01-06T21:06:43.667Z,-22.37
2023-01-06T21:11:47.263Z,-22.43
2023-01-06T21:16:52.353Z,-22.38
2023-01-06T21:21:55.925Z,-22.40
2023-01-06T21:26:59.616Z,-22.50
2023-01-06T21:32:04.658Z,-22.49
2023-01-06T21:37:08.567Z,-22.51
2023-01-06T21:42:29.481Z,-22.48
2023-01-06T21:47:34.528Z,-22.50
2023-01-06T21:52:38.183Z,-22.50
2023-01-06T21:57:42.038Z,-22.49
2023-01-06T22:02:48.420Z,-22.47
2023-01-06T22:07:54.690Z,-22.47
2023-01-06T22:12:59.386Z,-22.52
2023-01-06T22:18:04.733Z,-22.45
2023-01-06T22:23:11.833Z,-22.49
2023-01-06T22:28:15.406Z,-22.56
2023-01-06T22:33:20.221Z,-22.57
2023-01-06T22:38:24.032Z,-22.59
2023-01-06T22:43:27.473Z,-22.58
2023-01-06T22:48:32.193Z,-22.55
2023-01-06T22:53:35.874Z,-22.59
2023-01-06T22:58:41.782Z,-22.62
2023-01-06T23:03:46.647Z,-22.59
2023-01-06T23:08:59.793Z,-22.68
2023-01-06T23:14:03.895Z,-22.70
2023-01-06T23:19:11.999Z,-22.71
2023-01-06T23:24:16.042Z,-22.90
2023-01-06T23:29:19.720Z,-22.80
2023-01-06T23:34:24.446Z,-22.75
2023-01-06T23:39:28.070Z,-22.75
2023-01-06T23:44:31.516Z,-22.73
2023-01-06T23:49:36.464Z,-22.71
2023-01-06T23:54:39.756Z,-22.84
2023-01-06T23:59:45.004Z,-22.80
